createdAt,value
2023-05-14T00:00:42.821Z,2.13
2023-05-14T00:03:09.868Z,1.65
2023-05-14T00:05:36.817Z,1.60
2023-05-14T00:08:03.841Z,2.17
2023-05-14T00:10:30.631Z,2.00
2023-05-14T00:12:57.493Z,2.05
2023-05-14T00:15:24.410Z,2.20
2023-05-14T00:17:51.292Z,1.85
2023-05-14T00:20:18.297Z,1.73
2023-05-14T00:22:45.137Z,1.92
2023-05-14T00:25:11.947Z,1.70
2023-05-14T00:27:38.754Z,1.65
2023-05-14T00:30:07.178Z,1.65
2023-05-14T00:32:34.184Z,1.90
2023-05-14T00:35:01.091Z,1.92
2023-05-14T00:37:27.944Z,1.73
2023-05-14T00:39:54.785Z,2.28
2023-05-14T00:42:21.623Z,1.58
2023-05-14T00:44:48.451Z,2.55
2023-05-14T00:47:15.552Z,2.00
2023-05-14T00:49:42.870Z,2.40
2023-05-14T00:52:10.926Z,1.88
2023-05-14T00:54:37.826Z,2.03
2023-05-14T00:57:06.148Z,1.67
2023-05-14T00:59:33.078Z,2.00
2023-05-14T01:01:59.984Z,2.05
2023-05-14T01:04:26.937Z,1.73
2023-05-14T01:07:12.548Z,2.08
2023-05-14T01:10:01.443Z,1.73
2023-05-14T01:12:45.685Z,1.92
2023-05-14T01:15:16.652Z,1.60
2023-05-14T01:20:10.914Z,1.80
2023-05-14T01:22:37.975Z,1.83
2023-05-14T01:25:05.750Z,1.98
2023-05-14T01:27:51.427Z,1.73
2023-05-14T01:30:37.585Z,1.77
2023-05-14T01:33:10.385Z,2.00
2023-05-14T01:35:37.496Z,2.13
2023-05-14T01:38:06.975Z,1.50
2023-05-14T01:40:34.249Z,1.70
2023-05-14T01:43:01.481Z,2.33
2023-05-14T01:45:28.351Z,1.90
2023-05-14T01:47:55.256Z,1.42
2023-05-14T01:50:22.362Z,1.45
2023-05-14T01:52:49.506Z,1.95
2023-05-14T01:55:16.420Z,1.85
2023-05-14T01:57:43.260Z,1.88
2023-05-14T02:00:10.360Z,1.77
2023-05-14T02:02:43.064Z,2.03
2023-05-14T02:05:12.446Z,2.22
2023-05-14T02:07:39.274Z,1.88
2023-05-14T02:10:06.562Z,1.90
2023-05-14T02:12:33.849Z,1.50
2023-05-14T02:15:00.669Z,1.60
2023-05-14T02:17:28.065Z,1.95
2023-05-14T02:19:54.899Z,1.98
2023-05-14T02:22:21.745Z,2.33
2023-05-14T02:24:49.901Z,1.60
2023-05-14T02:27:18.247Z,1.90
2023-05-14T02:29:45.059Z,1.58
2023-05-14T02:32:11.940Z,1.77
2023-05-14T02:34:39.321Z,1.63
2023-05-14T02:37:06.458Z,1.70
2023-05-14T02:39:33.318Z,1.60
2023-05-14T02:42:00.108Z,2.05
2023-05-14T02:44:26.957Z,1.42
2023-05-14T02:46:53.827Z,1.30
2023-05-14T02:49:20.708Z,1.40
2023-05-14T02:51:47.504Z,1.80
2023-05-14T02:54:16.560Z,1.45
2023-05-14T02:56:43.434Z,1.73
2023-05-14T02:59:10.605Z,1.65
2023-05-14T03:01:37.869Z,1.83
2023-05-14T03:04:05.155Z,1.65
2023-05-14T03:06:32.187Z,2.03
2023-05-14T03:08:59.022Z,1.67
2023-05-14T03:11:26.039Z,1.58
2023-05-14T03:13:52.894Z,1.65
2023-05-14T03:16:19.679Z,1.65
2023-05-14T03:18:46.573Z,1.67
2023-05-14T03:21:13.703Z,1.50
2023-05-14T03:23:40.523Z,1.65
2023-05-14T03:26:07.368Z,4.05
2023-05-14T03:28:34.182Z,1.80
2023-05-14T03:31:01.367Z,2.13
2023-05-14T03:33:28.253Z,1.42
2023-05-14T03:35:55.056Z,1.60
2023-05-14T03:38:21.854Z,1.48
2023-05-14T03:40:49.210Z,1.38
2023-05-14T03:43:16.602Z,3.10
2023-05-14T03:45:44.064Z,1.48
2023-05-14T03:48:10.990Z,1.42
2023-05-14T03:50:38.215Z,1.42
2023-05-14T03:53:06.253Z,1.70
2023-05-14T03:55:33.115Z,1.80
2023-05-14T03:57:59.979Z,2.03
2023-05-14T04:00:27.322Z,1.98
2023-05-14T04:02:54.279Z,1.88
2023-05-14T04:05:24.256Z,1.73
2023-05-14T04:07:52.694Z,1.73
2023-05-14T04:10:20.432Z,3.05
2023-05-14T04:12:47.281Z,1.65
2023-05-14T04:15:14.179Z,1.98
2023-05-14T04:17:41.328Z,2.10
2023-05-14T04:20:08.413Z,3.25
2023-05-14T04:22:35.211Z,2.33
2023-05-14T04:25:01.965Z,1.90
2023-05-14T04:27:28.752Z,2.47
2023-05-14T04:29:55.542Z,2.13
2023-05-14T04:32:22.940Z,1.90
2023-05-14T04:34:49.822Z,2.25
2023-05-14T04:37:16.701Z,1.98
2023-05-14T04:39:43.804Z,1.15
2023-05-14T04:42:10.993Z,1.70
2023-05-14T04:44:38.062Z,1.05
2023-05-14T04:47:05.024Z,2.50
2023-05-14T04:49:32.090Z,1.70
2023-05-14T04:51:58.917Z,1.60
2023-05-14T04:54:25.797Z,1.55
2023-05-14T04:56:52.656Z,1.70
2023-05-14T04:59:19.401Z,2.10
2023-05-14T05:01:46.234Z,1.90
2023-05-14T05:04:13.220Z,1.70
2023-05-14T05:06:40.063Z,2.13
2023-05-14T05:09:06.950Z,2.00
2023-05-14T05:11:33.799Z,1.92
2023-05-14T05:14:00.662Z,1.92
2023-05-14T05:16:27.566Z,1.90
2023-05-14T05:18:54.443Z,1.95
2023-05-14T05:21:21.321Z,2.15
2023-05-14T05:23:48.182Z,2.55
2023-05-14T05:26:14.933Z,2.20
2023-05-14T05:28:41.714Z,2.10
2023-05-14T05:31:08.583Z,2.42
2023-05-14T05:33:35.639Z,2.10
2023-05-14T05:36:02.494Z,2.60
2023-05-14T05:38:29.259Z,2.55
2023-05-14T05:40:56.123Z,5.22
2023-05-14T05:43:22.877Z,2.60
2023-05-14T05:45:49.670Z,2.42
2023-05-14T05:48:16.727Z,2.20
2023-05-14T05:50:44.941Z,1.90
2023-05-14T05:53:12.606Z,1.83
2023-05-14T05:55:39.590Z,2.20
2023-05-14T05:58:06.353Z,2.50
2023-05-14T06:00:33.323Z,2.13
2023-05-14T06:03:00.306Z,3.45
2023-05-14T06:05:27.308Z,2.45
2023-05-14T06:07:54.466Z,2.70
2023-05-14T06:10:21.348Z,4.68
2023-05-14T06:12:48.286Z,2.40
2023-05-14T06:15:15.136Z,2.95
2023-05-14T06:17:42.141Z,3.00
2023-05-14T06:20:09.359Z,3.03
2023-05-14T06:22:36.197Z,2.70
2023-05-14T06:25:03.110Z,2.92
2023-05-14T06:27:29.903Z,2.92
2023-05-14T06:29:56.911Z,3.00
2023-05-14T06:32:23.870Z,3.80
2023-05-14T06:34:50.692Z,3.47
2023-05-14T06:37:17.561Z,3.25
2023-05-14T06:39:50.284Z,3.63
2023-05-14T06:42:17.337Z,3.35
2023-05-14T06:44:44.512Z,3.50
2023-05-14T06:47:11.309Z,3.63
2023-05-14T06:49:38.078Z,4.47
2023-05-14T06:52:05.158Z,4.38
2023-05-14T06:54:31.942Z,3.97
2023-05-14T06:56:58.746Z,3.80
2023-05-14T06:59:25.510Z,3.28
2023-05-14T07:01:52.400Z,4.15
2023-05-14T07:04:19.411Z,3.35
2023-05-14T07:06:46.309Z,3.83
2023-05-14T07:09:13.544Z,5.47
2023-05-14T07:11:40.340Z,4.20
2023-05-14T07:14:07.156Z,5.57
2023-05-14T07:16:34.053Z,3.60
2023-05-14T07:19:01.013Z,3.90
2023-05-14T07:21:28.656Z,3.97
2023-05-14T07:23:55.436Z,4.05
2023-05-14T07:26:24.626Z,5.00
2023-05-14T07:28:51.468Z,4.40
2023-05-14T07:31:18.395Z,4.47
2023-05-14T07:33:45.257Z,5.40
2023-05-14T07:36:12.131Z,5.20
2023-05-14T07:38:39.004Z,5.75
2023-05-14T07:41:05.824Z,4.45
2023-05-14T07:43:32.693Z,4.90
2023-05-14T07:45:59.538Z,5.70
2023-05-14T07:48:26.473Z,4.78
2023-05-14T07:50:54.035Z,5.05
2023-05-14T07:53:20.884Z,5.75
2023-05-14T07:55:49.079Z,4.80
2023-05-14T07:58:16.421Z,4.07
2023-05-14T08:00:43.192Z,4.13
2023-05-14T08:03:10.091Z,5.10
2023-05-14T08:05:37.117Z,4.20
2023-05-14T08:08:04.040Z,4.47
2023-05-14T08:10:31.117Z,4.60
2023-05-14T08:12:58.005Z,4.82
2023-05-14T08:15:27.551Z,4.07
2023-05-14T08:17:54.863Z,4.40
2023-05-14T08:20:22.000Z,4.50
2023-05-14T08:22:48.999Z,3.75
2023-05-14T08:25:15.987Z,4.85
2023-05-14T08:27:42.750Z,4.57
2023-05-14T08:30:09.800Z,4.88
2023-05-14T08:32:38.751Z,4.43
2023-05-14T08:35:05.930Z,3.75
2023-05-14T08:37:32.745Z,3.38
2023-05-14T08:39:59.611Z,3.67
2023-05-14T08:42:27.172Z,3.38
2023-05-14T08:44:56.757Z,3.65
2023-05-14T08:47:24.098Z,3.38
2023-05-14T08:50:04.714Z,3.10
2023-05-14T08:52:31.650Z,3.13
2023-05-14T08:55:00.463Z,3.17
2023-05-14T08:57:28.661Z,3.63
2023-05-14T08:59:56.011Z,2.97
2023-05-14T09:02:28.450Z,4.47
2023-05-14T09:04:59.284Z,5.80
2023-05-14T09:07:26.506Z,4.85
2023-05-14T09:09:53.693Z,4.35
2023-05-14T09:12:20.702Z,7.45
2023-05-14T09:14:48.036Z,5.65
2023-05-14T09:17:15.028Z,7.85
2023-05-14T09:19:42.530Z,5.13
2023-05-14T09:22:12.726Z,8.10
2023-05-14T09:24:39.684Z,7.78
2023-05-14T09:27:06.998Z,5.35
2023-05-14T09:29:34.039Z,7.00
2023-05-14T09:32:04.985Z,5.80
2023-05-14T09:34:32.753Z,4.47
2023-05-14T09:37:00.704Z,6.22
2023-05-14T09:39:27.821Z,4.78
2023-05-14T09:41:55.223Z,3.58
2023-05-14T09:44:22.162Z,4.53
2023-05-14T09:46:49.612Z,5.75
2023-05-14T09:49:16.699Z,5.63
2023-05-14T09:51:43.555Z,7.20
2023-05-14T09:54:10.748Z,4.53
2023-05-14T09:56:38.044Z,4.18
2023-05-14T09:59:04.829Z,3.42
2023-05-14T10:01:33.171Z,5.15
2023-05-14T10:04:00.710Z,6.10
2023-05-14T10:06:32.666Z,5.43
2023-05-14T10:09:04.390Z,4.25
2023-05-14T10:11:37.447Z,4.85
2023-05-14T10:14:33.863Z,6.47
2023-05-14T10:17:01.676Z,4.40
2023-05-14T10:19:32.543Z,5.07
2023-05-14T10:22:07.228Z,6.57
2023-05-14T10:24:34.372Z,4.97
2023-05-14T10:27:01.238Z,4.93
2023-05-14T10:29:35.233Z,4.18
2023-05-14T10:32:06.811Z,4.38
2023-05-14T10:34:38.510Z,5.43
2023-05-14T10:37:06.605Z,4.82
2023-05-14T10:39:46.832Z,4.32
2023-05-14T10:42:23.973Z,4.72
2023-05-14T10:44:57.135Z,4.68
2023-05-14T10:47:24.345Z,5.32
2023-05-14T10:49:53.384Z,4.88
2023-05-14T10:52:20.410Z,4.55
2023-05-14T10:54:51.550Z,4.95
2023-05-14T10:59:45.134Z,5.05
2023-05-14T11:02:22.046Z,4.97
2023-05-14T11:04:55.708Z,5.20
2023-05-14T11:07:24.276Z,5.03
2023-05-14T11:09:51.332Z,4.95
2023-05-14T11:12:18.528Z,5.57
2023-05-14T11:14:45.419Z,5.97
2023-05-14T11:17:12.458Z,4.38
2023-05-14T11:19:39.396Z,5.85
2023-05-14T11:22:06.809Z,4.85
2023-05-14T11:24:33.624Z,5.25
2023-05-14T11:27:00.566Z,5.68
2023-05-14T11:29:27.325Z,4.22
2023-05-14T11:31:54.595Z,6.63
2023-05-14T11:34:21.851Z,4.32
2023-05-14T11:36:49.462Z,5.85
2023-05-14T11:39:19.555Z,4.57
2023-05-14T11:41:46.397Z,5.10
2023-05-14T11:44:13.227Z,5.72
2023-05-14T11:46:40.056Z,4.78
2023-05-14T11:49:07.158Z,5.22
2023-05-14T11:51:33.884Z,4.78
2023-05-14T11:54:00.814Z,7.22
2023-05-14T11:56:27.576Z,5.32
2023-05-14T11:58:58.389Z,4.85
2023-05-14T12:01:25.425Z,5.10
2023-05-14T12:03:52.342Z,6.88
2023-05-14T12:06:19.454Z,5.40
2023-05-14T12:08:47.880Z,5.63
2023-05-14T12:11:14.745Z,4.90
2023-05-14T12:13:42.075Z,4.80
2023-05-14T12:16:09.056Z,5.18
2023-05-14T12:18:36.082Z,5.70
2023-05-14T12:21:04.048Z,5.70
2023-05-14T12:23:31.612Z,5.28
2023-05-14T12:26:02.586Z,5.72
2023-05-14T12:28:29.459Z,6.50
2023-05-14T12:30:57.590Z,5.50
2023-05-14T12:33:26.615Z,4.97
2023-05-14T12:36:17.589Z,4.28
2023-05-14T12:38:48.091Z,5.07
2023-05-14T12:41:14.943Z,5.32
2023-05-14T12:43:45.034Z,4.68
2023-05-14T12:46:11.830Z,5.03
2023-05-14T12:48:38.678Z,4.40
2023-05-14T12:51:05.653Z,4.47
2023-05-14T12:53:32.459Z,4.28
2023-05-14T12:55:59.286Z,5.30
2023-05-14T12:58:26.098Z,5.53
2023-05-14T13:00:52.909Z,5.45
2023-05-14T13:03:19.836Z,4.63
2023-05-14T13:05:46.628Z,4.85
2023-05-14T13:08:17.872Z,3.80
2023-05-14T13:10:44.976Z,5.07
2023-05-14T13:13:12.004Z,4.93
2023-05-14T13:15:38.822Z,5.03
2023-05-14T13:18:05.750Z,5.05
2023-05-14T13:20:33.692Z,5.47
2023-05-14T13:23:00.641Z,6.45
2023-05-14T13:25:27.816Z,4.63
2023-05-14T13:27:54.586Z,5.30
2023-05-14T13:30:21.354Z,5.55
2023-05-14T13:32:48.411Z,5.93
2023-05-14T13:35:15.247Z,5.72
2023-05-14T13:37:43.429Z,5.38
2023-05-14T13:40:10.687Z,5.47
2023-05-14T13:42:37.820Z,5.70
2023-05-14T13:45:04.923Z,6.72
2023-05-14T13:47:31.806Z,5.78
2023-05-14T13:49:58.601Z,5.82
2023-05-14T13:52:25.549Z,5.95
2023-05-14T13:54:53.171Z,5.53
2023-05-14T13:57:20.163Z,5.57
2023-05-14T13:59:47.197Z,6.10
2023-05-14T14:02:14.972Z,5.82
2023-05-14T14:04:41.708Z,6.47
2023-05-14T14:07:09.243Z,8.18
2023-05-14T14:09:37.124Z,6.43
2023-05-14T14:12:04.498Z,7.05
2023-05-14T14:14:31.490Z,6.93
2023-05-14T14:16:58.325Z,7.20
2023-05-14T14:19:25.232Z,6.70
2023-05-14T14:21:52.015Z,9.32
2023-05-14T14:24:18.881Z,8.90
2023-05-14T14:26:45.683Z,7.28
2023-05-14T14:29:12.549Z,7.65
2023-05-14T14:31:39.407Z,7.93
2023-05-14T14:34:06.314Z,7.97
2023-05-14T14:36:33.093Z,7.57
2023-05-14T14:38:59.881Z,7.70
2023-05-14T14:41:27.519Z,11.45
2023-05-14T14:43:54.359Z,8.25
2023-05-14T14:46:21.214Z,7.30
2023-05-14T14:48:48.082Z,6.70
2023-05-14T14:51:14.865Z,7.47
2023-05-14T14:53:41.709Z,6.47
2023-05-14T14:56:08.547Z,7.72
2023-05-14T14:58:35.412Z,8.32
2023-05-14T15:01:02.390Z,8.45
2023-05-14T15:03:29.547Z,8.60
2023-05-14T15:05:56.554Z,8.75
2023-05-14T15:08:29.696Z,9.48
2023-05-14T15:10:56.559Z,8.02
2023-05-14T15:13:24.351Z,8.05
2023-05-14T15:15:52.243Z,8.25
2023-05-14T15:18:19.226Z,9.23
2023-05-14T15:20:46.205Z,8.45
2023-05-14T15:23:13.138Z,9.27
2023-05-14T15:25:40.060Z,8.18
2023-05-14T15:28:07.817Z,8.88
2023-05-14T15:30:34.932Z,7.75
2023-05-14T15:33:01.960Z,8.85
2023-05-14T15:35:28.873Z,7.78
2023-05-14T15:37:57.491Z,8.43
2023-05-14T15:40:24.682Z,7.97
2023-05-14T15:42:51.694Z,8.95
2023-05-14T15:45:18.634Z,9.30
2023-05-14T15:47:45.638Z,8.18
2023-05-14T15:50:12.578Z,8.40
2023-05-14T15:52:39.817Z,18.55
2023-05-14T15:55:07.106Z,9.52
2023-05-14T15:57:34.530Z,9.52
2023-05-14T16:00:01.364Z,9.52
2023-05-14T16:02:33.362Z,9.35
2023-05-14T16:05:00.438Z,10.05
2023-05-14T16:07:27.425Z,9.50
2023-05-14T16:09:54.603Z,8.93
2023-05-14T16:12:21.673Z,9.52
2023-05-14T16:14:48.547Z,9.20
2023-05-14T16:17:15.360Z,9.00
2023-05-14T16:19:42.219Z,8.88
2023-05-14T16:22:09.083Z,9.38
2023-05-14T16:24:36.404Z,9.90
2023-05-14T16:27:04.003Z,11.10
2023-05-14T16:29:31.519Z,10.02
2023-05-14T16:31:58.705Z,8.98
2023-05-14T16:34:25.636Z,9.40
2023-05-14T16:36:54.506Z,8.65
2023-05-14T16:39:21.503Z,9.13
2023-05-14T16:41:48.344Z,9.63
2023-05-14T16:44:15.247Z,9.70
2023-05-14T16:46:42.204Z,9.50
2023-05-14T16:49:09.099Z,9.93
2023-05-14T16:51:37.503Z,9.88
2023-05-14T16:54:04.673Z,9.07
2023-05-14T16:56:32.589Z,9.70
2023-05-14T16:58:59.327Z,9.20
2023-05-14T17:01:26.427Z,7.50
2023-05-14T17:03:53.369Z,7.97
2023-05-14T17:06:20.270Z,8.65
2023-05-14T17:08:47.152Z,8.05
2023-05-14T17:11:14.020Z,7.38
2023-05-14T17:13:41.009Z,8.18
2023-05-14T17:16:07.994Z,7.75
2023-05-14T17:18:34.960Z,7.95
2023-05-14T17:21:01.962Z,7.05
2023-05-14T17:23:28.886Z,8.02
2023-05-14T17:25:56.837Z,7.45
2023-05-14T17:28:24.684Z,6.50
2023-05-14T17:30:51.581Z,8.30
2023-05-14T17:33:18.907Z,6.85
2023-05-14T17:35:46.078Z,6.50
2023-05-14T17:38:13.000Z,6.65
2023-05-14T17:40:41.056Z,9.88
2023-05-14T17:43:08.781Z,6.72
2023-05-14T17:45:46.379Z,6.68
2023-05-14T17:48:20.694Z,7.75
2023-05-14T17:50:47.583Z,6.95
2023-05-14T17:53:15.945Z,6.45
2023-05-14T17:55:43.971Z,7.20
2023-05-14T17:58:11.761Z,6.18
2023-05-14T18:00:38.667Z,6.13
2023-05-14T18:03:05.655Z,6.05
2023-05-14T18:05:32.652Z,6.78
2023-05-14T18:08:00.193Z,6.80
2023-05-14T18:10:27.172Z,6.07
2023-05-14T18:12:53.990Z,6.50
2023-05-14T18:15:20.876Z,6.68
2023-05-14T18:17:47.819Z,7.57
2023-05-14T18:20:14.756Z,6.32
2023-05-14T18:22:41.615Z,6.90
2023-05-14T18:25:09.810Z,5.90
2023-05-14T18:27:39.644Z,7.30
2023-05-14T18:30:07.606Z,10.02
2023-05-14T18:32:34.464Z,6.78
2023-05-14T18:35:01.393Z,7.65
2023-05-14T18:37:28.224Z,7.85
2023-05-14T18:39:55.183Z,6.90
2023-05-14T18:42:21.999Z,6.57
2023-05-14T18:44:48.952Z,6.25
2023-05-14T18:47:15.821Z,7.45
2023-05-14T18:49:42.689Z,6.20
2023-05-14T18:52:09.605Z,6.97
2023-05-14T18:54:36.500Z,7.38
2023-05-14T18:57:03.387Z,5.05
2023-05-14T18:59:30.257Z,5.57
2023-05-14T19:01:57.267Z,7.40
2023-05-14T19:04:25.033Z,5.45
2023-05-14T19:06:51.956Z,5.82
2023-05-14T19:09:21.311Z,5.88
2023-05-14T19:11:48.514Z,5.68
2023-05-14T19:14:15.360Z,8.10
2023-05-14T19:16:42.278Z,7.10
2023-05-14T19:19:09.220Z,6.07
2023-05-14T19:21:36.491Z,7.32
2023-05-14T19:24:03.497Z,6.78
2023-05-14T19:26:30.532Z,5.57
2023-05-14T19:28:58.854Z,6.28
2023-05-14T19:31:26.029Z,5.07
2023-05-14T19:33:53.499Z,4.80
2023-05-14T19:36:20.954Z,5.25
2023-05-14T19:38:48.313Z,5.15
2023-05-14T19:41:15.240Z,5.38
2023-05-14T19:43:42.081Z,6.13
2023-05-14T19:46:08.936Z,5.18
2023-05-14T19:48:35.814Z,5.85
2023-05-14T19:51:02.658Z,5.38
2023-05-14T19:53:32.283Z,5.15
2023-05-14T19:55:59.809Z,5.63
2023-05-14T19:58:26.710Z,4.93
2023-05-14T20:00:54.669Z,5.68
2023-05-14T20:03:26.272Z,7.53
2023-05-14T20:05:53.522Z,7.68
2023-05-14T20:08:20.871Z,7.88
2023-05-14T20:10:48.094Z,7.22
2023-05-14T20:13:15.053Z,7.18
2023-05-14T20:15:41.972Z,6.68
2023-05-14T20:18:09.030Z,7.43
2023-05-14T20:20:36.033Z,7.03
2023-05-14T20:23:02.794Z,7.30
2023-05-14T20:25:29.826Z,6.55
2023-05-14T20:27:56.965Z,5.97
2023-05-14T20:30:23.907Z,6.57
2023-05-14T20:32:51.426Z,7.07
2023-05-14T20:35:18.290Z,6.65
2023-05-14T20:37:45.142Z,6.35
2023-05-14T20:40:15.147Z,5.65
2023-05-14T20:42:41.945Z,6.15
2023-05-14T20:45:09.135Z,5.03
2023-05-14T20:47:35.970Z,5.45
2023-05-14T20:50:02.832Z,7.57
2023-05-14T20:52:29.674Z,5.22
2023-05-14T20:54:57.130Z,5.35
2023-05-14T20:57:25.031Z,4.78
2023-05-14T20:59:51.903Z,4.25
2023-05-14T21:02:18.780Z,3.53
2023-05-14T21:04:46.158Z,3.95
2023-05-14T21:07:12.930Z,3.65
2023-05-14T21:09:39.735Z,3.80
2023-05-14T21:12:06.724Z,3.25
2023-05-14T21:14:33.477Z,3.45
2023-05-14T21:17:00.385Z,3.08
2023-05-14T21:19:27.167Z,2.55
2023-05-14T21:21:53.947Z,3.50
2023-05-14T21:24:20.794Z,3.20
2023-05-14T21:26:47.644Z,3.58
2023-05-14T21:29:14.444Z,3.90
2023-05-14T21:31:41.268Z,4.00
2023-05-14T21:34:08.097Z,3.85
2023-05-14T21:36:34.986Z,3.33
2023-05-14T21:39:01.812Z,4.45
2023-05-14T21:41:28.591Z,4.00
2023-05-14T21:43:55.500Z,4.20
2023-05-14T21:46:22.298Z,3.83
2023-05-14T21:48:49.182Z,3.95
2023-05-14T21:51:16.042Z,4.70
2023-05-14T21:53:42.918Z,4.55
2023-05-14T21:56:09.668Z,4.82
2023-05-14T21:58:36.492Z,4.30
2023-05-14T22:01:05.314Z,4.97
2023-05-14T22:03:34.443Z,4.78
2023-05-14T22:06:01.800Z,5.20
2023-05-14T22:08:29.853Z,3.78
2023-05-14T22:10:56.677Z,4.72
2023-05-14T22:13:23.477Z,4.55
2023-05-14T22:15:58.129Z,5.05
2023-05-14T22:18:32.576Z,4.53
2023-05-14T22:20:59.396Z,4.45
2023-05-14T22:23:26.391Z,5.53
2023-05-14T22:25:53.200Z,4.40
2023-05-14T22:28:20.050Z,4.53
2023-05-14T22:30:46.842Z,4.45
2023-05-14T22:33:13.742Z,4.40
2023-05-14T22:35:41.129Z,5.10
2023-05-14T22:38:08.007Z,5.18
2023-05-14T22:40:34.784Z,5.18
2023-05-14T22:43:01.638Z,5.35
2023-05-14T22:45:28.360Z,4.40
2023-05-14T22:47:55.235Z,4.60
2023-05-14T22:50:22.148Z,4.78
2023-05-14T22:52:48.975Z,4.57
2023-05-14T22:55:15.748Z,5.05
2023-05-14T22:57:42.521Z,4.45
2023-05-14T23:00:11.295Z,5.00
2023-05-14T23:02:38.712Z,4.53
2023-05-14T23:05:06.190Z,4.93
2023-05-14T23:07:33.059Z,4.65
2023-05-14T23:09:59.877Z,4.85
2023-05-14T23:12:26.696Z,5.13
2023-05-14T23:14:53.463Z,4.50
2023-05-14T23:17:20.471Z,5.05
2023-05-14T23:19:47.460Z,5.00
2023-05-14T23:22:14.307Z,4.43
2023-05-14T23:24:41.130Z,4.55
2023-05-14T23:27:08.020Z,4.88
2023-05-14T23:29:34.845Z,4.53
2023-05-14T23:32:01.662Z,4.80
2023-05-14T23:34:28.500Z,4.07
2023-05-14T23:36:55.291Z,4.50
2023-05-14T23:39:22.048Z,4.47
2023-05-14T23:41:48.829Z,4.60
2023-05-14T23:44:15.601Z,4.97
2023-05-14T23:46:42.484Z,4.68
2023-05-14T23:49:09.340Z,4.00
2023-05-14T23:51:37.114Z,4.00
2023-05-14T23:54:03.969Z,3.97
2023-05-14T23:56:31.074Z,4.90
2023-05-14T23:58:57.867Z,4.88
